Weather observations for the past three days for
Waco, Waco Regional Airport
Imperial (Metric)
Date Time (cdt) Wind (mph) Vis. (mi.) Weather Sky Cond. Temperature (ºF) Relative Humidity Wind Chill (°F) Heat Index (°F) Pressure Precipitation (in)
Air Dwpt 6 hour altimeter (in) sea level (mb) 1 hr 3 hr 6 hr
Max. Min.
31 07:51 S 8 10.00 Fair CLR 78.1 73.9 87% 81 30.01 1015.4
31 06:51 S 9 10.00 Fair CLR 77 73 84.9 77 88% 78 30 1014.8
31 05:51 S 9 10.00 Fair CLR 78.1 72 82% 80 29.98 1014.3
31 04:51 S 10 10.00 Fair CLR 80.1 72 76% 84 29.98 1014.2
31 03:51 S 12 10.00 Fair CLR 81 71.1 72% 85 29.97 1014.0
31 02:51 S 9 10.00 Fair CLR 82 71.1 69% 86 29.97 1014.1
31 01:51 S 12 10.00 Fair CLR 84 70 63% 88 29.98 1014.2
31 00:51 S 14 10.00 Fair CLR 84.9 68 97 84.9 57% 88 29.97 1014.0
30 23:51 S 15 10.00 Fair CLR 87.1 69.1 55% 91 29.96 1013.7
30 22:51 SE 10 10.00 Fair CLR 89.1 64.9 45% 91 29.95 1013.3
30 21:51 SE 9 10.00 Fair CLR 88 63 43% 89 29.94 1012.8
30 20:51 SE 8 10.00 Fair CLR 89.1 63 42% 90 29.91 1012.1
30 19:51 S 10 10.00 Fair CLR 93 63 37% 94 29.9 1011.7
30 18:51 SE 12 10.00 Fair CLR 97 61 100.9 96.1 30% 98 29.9 1011.6
30 17:51 S 9 10.00 A Few Clouds FEW090 99 60.1 28% 99 29.91 1011.8
30 16:51 S 14 10.00 A Few Clouds FEW085 100 62.1 29% 102 29.91 1012.0
30 15:51 S 12 G 21 10.00 A Few Clouds FEW080 100 63 30% 102 29.93 1012.7
30 14:51 S 9 10.00 Fair CLR 100 61 28% 101 29.96 1013.5
30 13:51 S 12 10.00 Fair CLR 99 63 31% 101 29.99 1014.5
30 12:51 S 10 10.00 Fair CLR 95 64.9 96.1 77 37% 98 30.01 1015.4
30 11:51 S 12 10.00 Fair CLR 93.9 66.9 41% 98 30.04 1016.3
30 10:51 S 12 10.00 Fair CLR 90 69.1 50% 95 30.05 1016.5
30 09:51 S 9 10.00 Fair CLR 86 71.1 61% 92 30.04 1016.4
30 08:51 S 10 10.00 Fair CLR 82 71.1 69% 86 30.04 1016.3
30 07:51 S 8 10.00 Fair CLR 79 71.1 77% 82 30.02 1015.8
30 06:51 S 8 10.00 Fair CLR 78.1 71.1 84.9 78.1 79% 80 30 1015.0
30 05:51 S 8 10.00 Fair CLR 79 71.1 77% 82 29.99 1014.5
30 04:51 S 6 10.00 Fair CLR 79 71.1 77% 82 29.98 1014.4
30 03:51 S 9 10.00 NULL NULL 81 72 74% 85 29.98 1014.3
30 02:51 S 8 10.00 Fair CLR 82 72 72% 87 29.98 1014.3
30 01:51 S 9 10.00 Fair CLR 82.9 71.1 67% 88 29.98 1014.3
30 00:51 S 10 10.00 Fair CLR 84.9 69.1 98.1 84.9 59% 89 29.98 1014.2
29 23:51 S 12 10.00 Fair CLR 87.1 68 53% 91 29.98 1014.1
29 22:51 S 9 10.00 Fair CLR 88 69.1 54% 92 29.98 1014.2
29 21:51 S 12 10.00 Fair CLR 91 66.9 45% 94 29.97 1013.9
29 20:51 S 8 10.00 Fair CLR 91.9 66 43% 95 29.94 1013.1
29 19:51 S 8 10.00 Fair CLR 93.9 64.9 38% 96 29.93 1012.7
29 18:51 S 7 10.00 Fair CLR 98.1 62.1 102 95 31% 99 29.93 1012.7
29 17:51 SE 8 10.00 Fair CLR 99 63 31% 101 29.93 1012.7
29 16:51 S 8 10.00 Fair CLR 100.9 63 29% 103 29.95 1013.2
29 15:51 S 12 10.00 Fair CLR 100 64 31% 103 29.97 1014.0
29 14:51 S 10 10.00 Fair CLR 100.9 66 32% 105 30 1014.9
29 13:51 S 9 10.00 Fair CLR 98.1 66 35% 102 30.03 1016.0
29 12:51 S 5 10.00 Fair CLR 95 69.1 95 72 43% 101 30.05 1016.5
29 11:51 S 8 10.00 Fair CLR 91.9 72 52% 100 30.07 1017.2
29 10:51 S 6 10.00 Fair CLR 89.1 71.1 55% 95 30.07 1017.3
29 09:51 Calm 10.00 Fair CLR 84 70 63% 88 30.07 1017.4
29 08:51 S 6 10.00 Fair CLR 80.1 71.1 74% 84 30.07 1017.6
29 07:51 SE 7 10.00 Fair CLR 73.9 69.1 85% 30.06 1017.2
29 06:51 Calm 10.00 Fair CLR 72 68 80.1 72 87% 30.05 1016.6
29 05:51 SE 3 10.00 Fair CLR 73.9 69.1 85% 30.04 1016.4
29 04:51 Calm 10.00 Fair CLR 73 68 84% 30.04 1016.4
29 03:51 SW 5 10.00 Fair CLR 75 69.1 82% 75 30.04 1016.2
29 02:51 S 6 10.00 Fair CLR 75.9 69.1 79% 77 30.03 1016.1
29 01:51 S 9 10.00 Fair CLR 78.1 69.1 74% 80 30.03 1016.1
29 00:51 S 8 10.00 Fair CLR 78.1 68 99 77 71% 80 30.03 1015.9
28 23:51 S 5 10.00 Fair CLR 79 68 69% 81 30.02 1015.8
28 22:51 SW 10 10.00 Fair CLR 82 69.1 65% 85 30.02 1015.6
28 21:51 S 13 10.00 Fair CLR 82.9 69.1 63% 87 30 1015.0
28 20:51 S 20 G 28 10.00 Fair CLR 90 66.9 47% 93 29.97 1013.9
28 19:51 SE 14 10.00 Light Rain CLR 93 66.9 42% 97 29.95 1013.4
28 18:51 SE 10 10.00 A Few Clouds FEW090 99 61 102.9 96.1 29% 100 29.93 1012.6
28 17:51 E 6 10.00 Fair CLR 100.9 61 27% 102 29.93 1012.6
28 16:51 E 12 G 18 10.00 Partly Cloudy SCT085 102 62.1 27% 104 29.93 1012.7
28 15:51 Vrbl 3 10.00 Partly Cloudy SCT085 100 63 30% 102 29.96 1013.7
28 14:51 SE 12 G 18 10.00 Partly Cloudy SCT070 102.9 66 30% 108 30 1014.8
28 13:51 E 9 10.00 Partly Cloudy SCT065 99 68 37% 105 30.02 1015.6
28 12:51 Vrbl 7 10.00 A Few Clouds FEW050 97 70 97 75 42% 104 30.04 1016.5
28 11:51 E 7 10.00 Fair CLR 93 72 50% 101 30.06 1017.0
28 10:51 Vrbl 3 10.00 Fair CLR 89.1 71.1 55% 95 30.06 1017.1
28 09:51 E 6 10.00 Fair CLR 86 71.1 61% 92 30.05 1016.7
Date Time (cdt) Wind (mph) Vis. (mi.) Weather Sky Cond. Air Dwpt Max. Min. Relative Humidity Wind Chill (°F) Heat Index (°F) altimeter (in) sea level (mb) 1 hr 3 hr 6 hr
6 hour
Temperature (ºF) Pressure Precipitation (in)